sensor_id;sensor_type;location;lat;lon;timestamp;temperature;humidity
418;DHT22;49;48.530;9.200;2023-02-28T00:01:35;0.20;37.80
418;DHT22;49;48.530;9.200;2023-02-28T00:04:05;0.30;36.90
418;DHT22;49;48.530;9.200;2023-02-28T00:06:46;0.60;36.00
418;DHT22;49;48.530;9.200;2023-02-28T00:09:14;0.50;36.80
418;DHT22;49;48.530;9.200;2023-02-28T00:11:41;0.40;37.70
418;DHT22;49;48.530;9.200;2023-02-28T00:14:08;0.20;38.00
418;DHT22;49;48.530;9.200;2023-02-28T00:16:36;0.30;38.50
418;DHT22;49;48.530;9.200;2023-02-28T00:19:07;0.40;37.30
418;DHT22;49;48.530;9.200;2023-02-28T00:21:38;0.50;36.60
418;DHT22;49;48.530;9.200;2023-02-28T00:24:09;0.60;36.20
418;DHT22;49;48.530;9.200;2023-02-28T00:26:49;0.90;34.90
418;DHT22;49;48.530;9.200;2023-02-28T00:29:22;0.90;34.00
418;DHT22;49;48.530;9.200;2023-02-28T00:31:49;0.80;34.50
418;DHT22;49;48.530;9.200;2023-02-28T00:34:18;0.60;36.00
418;DHT22;49;48.530;9.200;2023-02-28T00:36:46;0.80;34.70
418;DHT22;49;48.530;9.200;2023-02-28T00:39:15;0.70;34.80
418;DHT22;49;48.530;9.200;2023-02-28T00:41:46;0.60;35.40
418;DHT22;49;48.530;9.200;2023-02-28T00:44:14;0.40;36.10
418;DHT22;49;48.530;9.200;2023-02-28T00:46:47;0.30;37.60
418;DHT22;49;48.530;9.200;2023-02-28T00:49:13;0.40;37.20
418;DHT22;49;48.530;9.200;2023-02-28T00:51:41;0.40;37.60
418;DHT22;49;48.530;9.200;2023-02-28T00:54:32;0.30;37.60
418;DHT22;49;48.530;9.200;2023-02-28T00:56:59;0.20;38.40
418;DHT22;49;48.530;9.200;2023-02-28T01:02:53;0.20;38.20
418;DHT22;49;48.530;9.200;2023-02-28T01:05:47;0.20;38.50
418;DHT22;49;48.530;9.200;2023-02-28T01:08:18;0.40;38.60
418;DHT22;49;48.530;9.200;2023-02-28T01:10:46;0.30;39.30
418;DHT22;49;48.530;9.200;2023-02-28T01:13:13;0.50;38.00
418;DHT22;49;48.530;9.200;2023-02-28T01:15:45;0.40;38.50
418;DHT22;49;48.530;9.200;2023-02-28T01:18:14;0.90;36.50
418;DHT22;49;48.530;9.200;2023-02-28T01:20:41;0.60;37.50
418;DHT22;49;48.530;9.200;2023-02-28T01:23:10;0.30;38.50
418;DHT22;49;48.530;9.200;2023-02-28T01:25:41;0.40;39.00
418;DHT22;49;48.530;9.200;2023-02-28T01:28:08;0.50;38.60
418;DHT22;49;48.530;9.200;2023-02-28T01:30:35;0.60;37.90
418;DHT22;49;48.530;9.200;2023-02-28T01:33:02;0.40;39.30
418;DHT22;49;48.530;9.200;2023-02-28T01:35:34;0.40;40.20
418;DHT22;49;48.530;9.200;2023-02-28T01:38:01;0.40;41.10
418;DHT22;49;48.530;9.200;2023-02-28T01:40:31;0.30;40.20
418;DHT22;49;48.530;9.200;2023-02-28T01:42:58;0.50;39.60
418;DHT22;49;48.530;9.200;2023-02-28T01:45:27;0.40;40.70
418;DHT22;49;48.530;9.200;2023-02-28T01:48:02;-0.10;45.80
418;DHT22;49;48.530;9.200;2023-02-28T01:50:36;-0.20;48.80
418;DHT22;49;48.530;9.200;2023-02-28T01:53:08;-0.20;49.10
418;DHT22;49;48.530;9.200;2023-02-28T01:55:38;-0.10;48.50
418;DHT22;49;48.530;9.200;2023-02-28T01:58:06;-0.10;48.20
418;DHT22;49;48.530;9.200;2023-02-28T02:00:34;0.00;49.00
418;DHT22;49;48.530;9.200;2023-02-28T02:03:08;0.40;47.00
418;DHT22;49;48.530;9.200;2023-02-28T02:05:40;0.30;46.50
418;DHT22;49;48.530;9.200;2023-02-28T02:08:17;0.00;48.10
418;DHT22;49;48.530;9.200;2023-02-28T02:10:46;0.30;47.40
418;DHT22;49;48.530;9.200;2023-02-28T02:13:31;0.40;45.00
418;DHT22;49;48.530;9.200;2023-02-28T02:16:15;0.50;45.00
418;DHT22;49;48.530;9.200;2023-02-28T02:18:48;0.10;46.30
418;DHT22;49;48.530;9.200;2023-02-28T02:21:53;0.20;47.50
418;DHT22;49;48.530;9.200;2023-02-28T02:27:26;0.00;48.90
418;DHT22;49;48.530;9.200;2023-02-28T02:36:03;0.40;46.10
418;DHT22;49;48.530;9.200;2023-02-28T02:38:36;0.30;47.30
418;DHT22;49;48.530;9.200;2023-02-28T02:41:12;0.10;47.60
418;DHT22;49;48.530;9.200;2023-02-28T02:43:44;0.10;48.30
418;DHT22;49;48.530;9.200;2023-02-28T02:46:16;0.30;47.40
418;DHT22;49;48.530;9.200;2023-02-28T02:48:46;0.40;46.20
418;DHT22;49;48.530;9.200;2023-02-28T02:51:17;0.40;48.50
418;DHT22;49;48.530;9.200;2023-02-28T02:53:53;0.30;47.50
418;DHT22;49;48.530;9.200;2023-02-28T02:56:24;0.50;45.80
418;DHT22;49;48.530;9.200;2023-02-28T02:58:54;0.50;46.70
418;DHT22;49;48.530;9.200;2023-02-28T03:01:24;0.30;47.50
418;DHT22;49;48.530;9.200;2023-02-28T03:03:56;0.60;46.50
418;DHT22;49;48.530;9.200;2023-02-28T03:06:27;0.60;45.10
418;DHT22;49;48.530;9.200;2023-02-28T03:08:57;0.90;43.70
418;DHT22;49;48.530;9.200;2023-02-28T03:11:24;1.10;43.00
418;DHT22;49;48.530;9.200;2023-02-28T03:14:13;1.10;41.10
418;DHT22;49;48.530;9.200;2023-02-28T03:19:55;0.90;42.90
418;DHT22;49;48.530;9.200;2023-02-28T03:22:51;0.60;44.60
418;DHT22;49;48.530;9.200;2023-02-28T03:25:27;0.60;45.20
418;DHT22;49;48.530;9.200;2023-02-28T03:28:03;0.40;47.60
418;DHT22;49;48.530;9.200;2023-02-28T03:30:38;0.60;48.60
418;DHT22;49;48.530;9.200;2023-02-28T03:33:08;0.80;47.30
418;DHT22;49;48.530;9.200;2023-02-28T03:35:50;1.00;44.70
418;DHT22;49;48.530;9.200;2023-02-28T03:38:29;0.90;45.10
418;DHT22;49;48.530;9.200;2023-02-28T03:41:03;1.10;45.50
418;DHT22;49;48.530;9.200;2023-02-28T03:43:34;0.70;47.10
418;DHT22;49;48.530;9.200;2023-02-28T03:46:07;0.60;48.30
418;DHT22;49;48.530;9.200;2023-02-28T03:48:42;0.50;51.00
418;DHT22;49;48.530;9.200;2023-02-28T03:51:14;0.30;52.20
418;DHT22;49;48.530;9.200;2023-02-28T03:53:46;0.20;53.40
418;DHT22;49;48.530;9.200;2023-02-28T03:56:19;0.00;55.30
418;DHT22;49;48.530;9.200;2023-02-28T03:58:51;0.30;55.00
418;DHT22;49;48.530;9.200;2023-02-28T04:01:24;0.20;54.80
418;DHT22;49;48.530;9.200;2023-02-28T04:03:52;0.00;56.30
418;DHT22;49;48.530;9.200;2023-02-28T04:06:27;0.30;57.70
418;DHT22;49;48.530;9.200;2023-02-28T04:08:59;0.70;54.30
418;DHT22;49;48.530;9.200;2023-02-28T04:11:32;0.70;53.50
418;DHT22;49;48.530;9.200;2023-02-28T04:14:00;0.40;54.90
418;DHT22;49;48.530;9.200;2023-02-28T04:16:27;0.40;56.00
418;DHT22;49;48.530;9.200;2023-02-28T04:19:11;-0.10;59.50
418;DHT22;49;48.530;9.200;2023-02-28T04:21:41;0.40;58.40
418;DHT22;49;48.530;9.200;2023-02-28T04:24:13;0.50;56.10
418;DHT22;49;48.530;9.200;2023-02-28T04:26:41;0.60;56.90
418;DHT22;49;48.530;9.200;2023-02-28T04:29:11;0.60;55.70
418;DHT22;49;48.530;9.200;2023-02-28T04:31:41;0.70;56.10
418;DHT22;49;48.530;9.200;2023-02-28T04:34:08;0.60;54.10
418;DHT22;49;48.530;9.200;2023-02-28T04:36:37;0.40;56.80
418;DHT22;49;48.530;9.200;2023-02-28T04:39:04;0.30;57.20
418;DHT22;49;48.530;9.200;2023-02-28T04:41:36;0.00;60.00
418;DHT22;49;48.530;9.200;2023-02-28T04:44:05;0.20;59.20
418;DHT22;49;48.530;9.200;2023-02-28T04:46:32;0.20;58.90
418;DHT22;49;48.530;9.200;2023-02-28T04:48:59;0.50;58.60
418;DHT22;49;48.530;9.200;2023-02-28T04:51:26;0.50;56.00
418;DHT22;49;48.530;9.200;2023-02-28T04:53:56;0.00;60.40
418;DHT22;49;48.530;9.200;2023-02-28T04:56:24;0.00;59.90
418;DHT22;49;48.530;9.200;2023-02-28T04:58:55;0.00;60.10
418;DHT22;49;48.530;9.200;2023-02-28T05:01:23;0.30;58.60
418;DHT22;49;48.530;9.200;2023-02-28T05:03:53;0.40;58.80
418;DHT22;49;48.530;9.200;2023-02-28T05:06:23;0.60;57.50
418;DHT22;49;48.530;9.200;2023-02-28T05:08:51;0.60;56.10
418;DHT22;49;48.530;9.200;2023-02-28T05:11:21;0.30;58.60
418;DHT22;49;48.530;9.200;2023-02-28T05:13:50;0.20;60.70
418;DHT22;49;48.530;9.200;2023-02-28T05:16:19;0.40;58.60
418;DHT22;49;48.530;9.200;2023-02-28T05:18:46;0.50;59.70
418;DHT22;49;48.530;9.200;2023-02-28T05:21:26;0.90;56.00
418;DHT22;49;48.530;9.200;2023-02-28T05:23:56;0.90;55.60
418;DHT22;49;48.530;9.200;2023-02-28T05:26:24;0.90;55.90
418;DHT22;49;48.530;9.200;2023-02-28T05:28:53;0.70;56.10
418;DHT22;49;48.530;9.200;2023-02-28T05:31:24;0.70;57.70
418;DHT22;49;48.530;9.200;2023-02-28T05:33:53;0.70;57.80
418;DHT22;49;48.530;9.200;2023-02-28T05:36:21;0.30;59.40
418;DHT22;49;48.530;9.200;2023-02-28T05:38:52;0.50;58.90
418;DHT22;49;48.530;9.200;2023-02-28T05:41:20;0.40;60.20
418;DHT22;49;48.530;9.200;2023-02-28T05:43:51;0.20;61.10
418;DHT22;49;48.530;9.200;2023-02-28T05:46:18;0.20;61.60
418;DHT22;49;48.530;9.200;2023-02-28T05:48:50;0.70;59.10
418;DHT22;49;48.530;9.200;2023-02-28T05:51:18;0.90;57.90
418;DHT22;49;48.530;9.200;2023-02-28T05:53:45;1.10;55.20
418;DHT22;49;48.530;9.200;2023-02-28T05:56:13;0.60;58.00
418;DHT22;49;48.530;9.200;2023-02-28T05:58:45;0.80;57.80
418;DHT22;49;48.530;9.200;2023-02-28T06:01:33;0.90;56.30
418;DHT22;49;48.530;9.200;2023-02-28T06:04:07;0.80;57.60
418;DHT22;49;48.530;9.200;2023-02-28T06:06:34;0.90;56.40
418;DHT22;49;48.530;9.200;2023-02-28T06:09:03;0.80;56.20
418;DHT22;49;48.530;9.200;2023-02-28T06:11:30;0.80;57.80
418;DHT22;49;48.530;9.200;2023-02-28T06:14:03;0.70;57.70
418;DHT22;49;48.530;9.200;2023-02-28T06:16:34;0.50;58.40
418;DHT22;49;48.530;9.200;2023-02-28T06:19:04;0.50;57.50
418;DHT22;49;48.530;9.200;2023-02-28T06:21:43;0.40;58.00
418;DHT22;49;48.530;9.200;2023-02-28T06:24:14;0.60;58.40
418;DHT22;49;48.530;9.200;2023-02-28T06:26:43;0.80;56.70
418;DHT22;49;48.530;9.200;2023-02-28T06:29:15;0.70;57.80
418;DHT22;49;48.530;9.200;2023-02-28T06:31:50;0.80;56.20
418;DHT22;49;48.530;9.200;2023-02-28T06:34:22;0.80;55.60
418;DHT22;49;48.530;9.200;2023-02-28T06:36:53;0.70;55.50
418;DHT22;49;48.530;9.200;2023-02-28T06:39:20;0.50;57.60
418;DHT22;49;48.530;9.200;2023-02-28T06:41:49;0.50;57.80
418;DHT22;49;48.530;9.200;2023-02-28T06:44:18;0.60;56.10
418;DHT22;49;48.530;9.200;2023-02-28T06:46:45;0.60;56.10
418;DHT22;49;48.530;9.200;2023-02-28T06:49:24;0.30;58.90
418;DHT22;49;48.530;9.200;2023-02-28T06:51:51;0.40;58.00
418;DHT22;49;48.530;9.200;2023-02-28T06:54:22;0.40;59.10
418;DHT22;49;48.530;9.200;2023-02-28T06:57:09;0.60;56.10
418;DHT22;49;48.530;9.200;2023-02-28T06:59:45;1.00;54.70
418;DHT22;49;48.530;9.200;2023-02-28T07:02:18;0.60;56.10
418;DHT22;49;48.530;9.200;2023-02-28T07:04:49;0.80;55.60
418;DHT22;49;48.530;9.200;2023-02-28T07:07:18;0.70;55.50
418;DHT22;49;48.530;9.200;2023-02-28T07:09:48;0.50;56.00
418;DHT22;49;48.530;9.200;2023-02-28T07:12:15;0.60;57.30
418;DHT22;49;48.530;9.200;2023-02-28T07:14:48;0.50;58.30
418;DHT22;49;48.530;9.200;2023-02-28T07:17:20;1.20;55.90
418;DHT22;49;48.530;9.200;2023-02-28T07:19:56;1.10;53.80
418;DHT22;49;48.530;9.200;2023-02-28T07:22:26;1.30;53.80
418;DHT22;49;48.530;9.200;2023-02-28T07:25:01;1.40;51.60
418;DHT22;49;48.530;9.200;2023-02-28T07:27:32;1.20;51.50
418;DHT22;49;48.530;9.200;2023-02-28T07:30:10;1.10;52.20
418;DHT22;49;48.530;9.200;2023-02-28T07:32:40;1.30;51.20
418;DHT22;49;48.530;9.200;2023-02-28T07:35:21;1.20;51.10
418;DHT22;49;48.530;9.200;2023-02-28T07:37:50;1.50;49.60
418;DHT22;49;48.530;9.200;2023-02-28T07:40:17;2.10;46.90
418;DHT22;49;48.530;9.200;2023-02-28T07:42:46;2.70;41.30
418;DHT22;49;48.530;9.200;2023-02-28T07:45:19;2.70;37.10
418;DHT22;49;48.530;9.200;2023-02-28T07:47:47;2.70;38.40
418;DHT22;49;48.530;9.200;2023-02-28T07:50:18;2.80;36.20
418;DHT22;49;48.530;9.200;2023-02-28T07:52:50;2.80;37.50
418;DHT22;49;48.530;9.200;2023-02-28T07:55:18;3.00;35.00
418;DHT22;49;48.530;9.200;2023-02-28T07:57:52;2.80;36.80
418;DHT22;49;48.530;9.200;2023-02-28T08:00:20;2.80;35.50
418;DHT22;49;48.530;9.200;2023-02-28T08:02:47;2.90;35.60
418;DHT22;49;48.530;9.200;2023-02-28T08:05:18;3.20;33.10
418;DHT22;49;48.530;9.200;2023-02-28T08:07:46;3.60;30.80
418;DHT22;49;48.530;9.200;2023-02-28T08:10:13;4.00;29.70
418;DHT22;49;48.530;9.200;2023-02-28T08:12:41;4.10;28.40
418;DHT22;49;48.530;9.200;2023-02-28T08:15:11;3.70;28.70
418;DHT22;49;48.530;9.200;2023-02-28T08:17:43;3.50;30.40
418;DHT22;49;48.530;9.200;2023-02-28T08:20:11;3.30;30.80
418;DHT22;49;48.530;9.200;2023-02-28T08:22:40;3.30;30.70
418;DHT22;49;48.530;9.200;2023-02-28T08:25:10;3.30;30.70
418;DHT22;49;48.530;9.200;2023-02-28T08:27:40;3.20;30.70
418;DHT22;49;48.530;9.200;2023-02-28T08:30:09;3.40;30.90
418;DHT22;49;48.530;9.200;2023-02-28T08:32:37;3.50;30.10
418;DHT22;49;48.530;9.200;2023-02-28T08:35:05;3.70;29.50
418;DHT22;49;48.530;9.200;2023-02-28T08:37:32;3.60;29.00
418;DHT22;49;48.530;9.200;2023-02-28T08:40:00;3.80;29.70
418;DHT22;49;48.530;9.200;2023-02-28T08:42:28;3.40;29.80
418;DHT22;49;48.530;9.200;2023-02-28T08:44:55;3.40;28.60
418;DHT22;49;48.530;9.200;2023-02-28T08:47:27;3.50;29.20
418;DHT22;49;48.530;9.200;2023-02-28T08:49:55;4.00;28.10
418;DHT22;49;48.530;9.200;2023-02-28T08:52:21;4.00;27.80
418;DHT22;49;48.530;9.200;2023-02-28T08:54:48;3.80;27.60
418;DHT22;49;48.530;9.200;2023-02-28T08:57:17;3.50;28.40
418;DHT22;49;48.530;9.200;2023-02-28T08:59:44;3.60;28.90
418;DHT22;49;48.530;9.200;2023-02-28T09:02:12;4.30;26.70
418;DHT22;49;48.530;9.200;2023-02-28T09:04:39;4.00;26.70
418;DHT22;49;48.530;9.200;2023-02-28T09:07:07;4.10;27.30
418;DHT22;49;48.530;9.200;2023-02-28T09:09:33;4.20;26.80
418;DHT22;49;48.530;9.200;2023-02-28T09:12:00;4.40;25.80
418;DHT22;49;48.530;9.200;2023-02-28T09:14:29;3.90;27.70
418;DHT22;49;48.530;9.200;2023-02-28T09:16:59;3.70;27.50
418;DHT22;49;48.530;9.200;2023-02-28T09:19:26;3.40;27.80
418;DHT22;49;48.530;9.200;2023-02-28T09:21:52;3.60;28.40
418;DHT22;49;48.530;9.200;2023-02-28T09:24:19;3.90;27.20
418;DHT22;49;48.530;9.200;2023-02-28T09:26:46;3.70;27.20
418;DHT22;49;48.530;9.200;2023-02-28T09:29:13;3.60;27.30
418;DHT22;49;48.530;9.200;2023-02-28T09:31:43;3.70;27.20
418;DHT22;49;48.530;9.200;2023-02-28T09:34:10;4.10;26.50
418;DHT22;49;48.530;9.200;2023-02-28T09:36:37;4.30;25.30
418;DHT22;49;48.530;9.200;2023-02-28T09:39:04;4.20;27.00
418;DHT22;49;48.530;9.200;2023-02-28T09:41:37;4.40;25.00
418;DHT22;49;48.530;9.200;2023-02-28T09:44:17;4.70;25.20
418;DHT22;49;48.530;9.200;2023-02-28T09:46:49;4.90;23.70
418;DHT22;49;48.530;9.200;2023-02-28T09:49:21;5.50;23.20
418;DHT22;49;48.530;9.200;2023-02-28T09:51:56;5.50;23.00
418;DHT22;49;48.530;9.200;2023-02-28T09:54:26;5.00;23.50
418;DHT22;49;48.530;9.200;2023-02-28T09:56:58;4.90;23.60
418;DHT22;49;48.530;9.200;2023-02-28T09:59:39;5.00;23.60
418;DHT22;49;48.530;9.200;2023-02-28T10:02:31;4.90;23.20
418;DHT22;49;48.530;9.200;2023-02-28T10:05:09;4.90;24.80
418;DHT22;49;48.530;9.200;2023-02-28T10:08:00;4.90;23.60
418;DHT22;49;48.530;9.200;2023-02-28T10:10:35;5.20;23.20
418;DHT22;49;48.530;9.200;2023-02-28T10:13:06;5.60;21.40
418;DHT22;49;48.530;9.200;2023-02-28T10:15:39;5.80;22.40
418;DHT22;49;48.530;9.200;2023-02-28T10:18:12;6.00;22.60
418;DHT22;49;48.530;9.200;2023-02-28T10:20:41;6.20;20.40
418;DHT22;49;48.530;9.200;2023-02-28T10:23:13;5.30;21.10
418;DHT22;49;48.530;9.200;2023-02-28T10:25:46;5.20;23.40
418;DHT22;49;48.530;9.200;2023-02-28T10:28:16;5.50;21.60
418;DHT22;49;48.530;9.200;2023-02-28T10:30:45;5.30;23.50
418;DHT22;49;48.530;9.200;2023-02-28T10:33:21;5.50;21.10
418;DHT22;49;48.530;9.200;2023-02-28T10:35:49;5.80;20.90
418;DHT22;49;48.530;9.200;2023-02-28T10:38:19;5.70;21.00
418;DHT22;49;48.530;9.200;2023-02-28T10:40:46;5.80;20.90
418;DHT22;49;48.530;9.200;2023-02-28T10:43:21;5.70;24.40
418;DHT22;49;48.530;9.200;2023-02-28T10:45:55;5.60;24.20
418;DHT22;49;48.530;9.200;2023-02-28T10:48:39;5.40;21.50
418;DHT22;49;48.530;9.200;2023-02-28T10:51:11;5.30;22.50
418;DHT22;49;48.530;9.200;2023-02-28T10:53:47;5.50;21.10
418;DHT22;49;48.530;9.200;2023-02-28T10:56:20;5.90;22.00
418;DHT22;49;48.530;9.200;2023-02-28T10:58:51;5.70;22.40
418;DHT22;49;48.530;9.200;2023-02-28T11:01:23;5.70;20.90
418;DHT22;49;48.530;9.200;2023-02-28T11:04:17;5.50;20.70
418;DHT22;49;48.530;9.200;2023-02-28T11:06:46;5.80;20.90
418;DHT22;49;48.530;9.200;2023-02-28T11:09:22;6.30;20.70
418;DHT22;49;48.530;9.200;2023-02-28T11:11:50;6.50;19.60
418;DHT22;49;48.530;9.200;2023-02-28T11:14:20;6.10;20.00
418;DHT22;49;48.530;9.200;2023-02-28T11:16:49;6.10;22.20
418;DHT22;49;48.530;9.200;2023-02-28T11:19:21;6.20;20.40
418;DHT22;49;48.530;9.200;2023-02-28T11:21:53;6.70;19.40
418;DHT22;49;48.530;9.200;2023-02-28T11:24:24;7.30;19.90
418;DHT22;49;48.530;9.200;2023-02-28T11:26:53;7.80;18.00
418;DHT22;49;48.530;9.200;2023-02-28T11:29:22;7.60;17.70
418;DHT22;49;48.530;9.200;2023-02-28T11:32:06;8.00;18.10
418;DHT22;49;48.530;9.200;2023-02-28T11:34:39;7.70;17.50
418;DHT22;49;48.530;9.200;2023-02-28T11:37:11;7.20;17.40
418;DHT22;49;48.530;9.200;2023-02-28T11:39:39;6.80;18.70
418;DHT22;49;48.530;9.200;2023-02-28T11:42:16;7.00;18.50
418;DHT22;49;48.530;9.200;2023-02-28T11:44:59;7.30;18.70
418;DHT22;49;48.530;9.200;2023-02-28T11:47:36;7.30;17.70
418;DHT22;49;48.530;9.200;2023-02-28T11:50:17;7.50;17.90
418;DHT22;49;48.530;9.200;2023-02-28T11:52:52;7.50;16.90
418;DHT22;49;48.530;9.200;2023-02-28T11:55:24;7.10;18.00
418;DHT22;49;48.530;9.200;2023-02-28T11:58:30;7.20;17.80
418;DHT22;49;48.530;9.200;2023-02-28T12:01:13;7.70;17.50
418;DHT22;49;48.530;9.200;2023-02-28T12:03:53;7.60;17.30
418;DHT22;49;48.530;9.200;2023-02-28T12:06:27;7.00;18.00
418;DHT22;49;48.530;9.200;2023-02-28T12:09:04;7.50;17.60
418;DHT22;49;48.530;9.200;2023-02-28T12:11:52;7.50;16.40
418;DHT22;49;48.530;9.200;2023-02-28T12:17:39;7.20;17.80
418;DHT22;49;48.530;9.200;2023-02-28T12:20:17;7.10;18.40
418;DHT22;49;48.530;9.200;2023-02-28T12:22:59;7.40;17.90
418;DHT22;49;48.530;9.200;2023-02-28T12:28:41;7.40;17.70
418;DHT22;49;48.530;9.200;2023-02-28T12:31:13;7.40;18.10
418;DHT22;49;48.530;9.200;2023-02-28T12:33:45;6.80;18.10
418;DHT22;49;48.530;9.200;2023-02-28T12:36:18;6.70;18.90
418;DHT22;49;48.530;9.200;2023-02-28T12:38:53;6.40;19.20
418;DHT22;49;48.530;9.200;2023-02-28T12:41:26;6.40;19.30
418;DHT22;49;48.530;9.200;2023-02-28T12:44:00;6.20;19.40
418;DHT22;49;48.530;9.200;2023-02-28T12:46:43;6.20;19.10
418;DHT22;49;48.530;9.200;2023-02-28T12:49:15;6.30;19.80
418;DHT22;49;48.530;9.200;2023-02-28T12:51:51;6.50;19.60
418;DHT22;49;48.530;9.200;2023-02-28T12:54:31;6.60;19.20
418;DHT22;49;48.530;9.200;2023-02-28T12:57:09;6.20;20.40
418;DHT22;49;48.530;9.200;2023-02-28T12:59:42;6.40;19.80
418;DHT22;49;48.530;9.200;2023-02-28T13:02:50;6.40;19.90
418;DHT22;49;48.530;9.200;2023-02-28T13:08:34;5.70;20.80
418;DHT22;49;48.530;9.200;2023-02-28T13:11:25;6.00;21.50
418;DHT22;49;48.530;9.200;2023-02-28T13:13:59;6.00;21.10
418;DHT22;49;48.530;9.200;2023-02-28T13:16:27;6.10;21.10
418;DHT22;49;48.530;9.200;2023-02-28T13:19:11;6.50;20.40
418;DHT22;49;48.530;9.200;2023-02-28T13:21:43;6.70;19.30
418;DHT22;49;48.530;9.200;2023-02-28T13:24:11;6.70;19.20
418;DHT22;49;48.530;9.200;2023-02-28T13:27:24;6.60;20.00
418;DHT22;49;48.530;9.200;2023-02-28T13:30:02;6.90;18.80
418;DHT22;49;48.530;9.200;2023-02-28T13:33:20;6.50;20.10
418;DHT22;49;48.530;9.200;2023-02-28T13:35:50;6.60;20.20
418;DHT22;49;48.530;9.200;2023-02-28T13:38:36;6.60;20.30
418;DHT22;49;48.530;9.200;2023-02-28T13:44:19;6.80;19.10
418;DHT22;49;48.530;9.200;2023-02-28T13:47:20;7.10;18.70
418;DHT22;49;48.530;9.200;2023-02-28T13:49:50;6.80;19.70
418;DHT22;49;48.530;9.200;2023-02-28T13:52:21;6.70;19.60
418;DHT22;49;48.530;9.200;2023-02-28T13:55:12;6.50;20.00
418;DHT22;49;48.530;9.200;2023-02-28T13:57:55;6.60;21.00
418;DHT22;49;48.530;9.200;2023-02-28T14:00:39;6.70;20.20
418;DHT22;49;48.530;9.200;2023-02-28T14:03:22;6.30;20.40
418;DHT22;49;48.530;9.200;2023-02-28T14:06:19;6.50;20.40
418;DHT22;49;48.530;9.200;2023-02-28T14:08:54;6.90;19.40
418;DHT22;49;48.530;9.200;2023-02-28T14:11:28;7.30;18.80
418;DHT22;49;48.530;9.200;2023-02-28T14:13:55;6.90;19.00
418;DHT22;49;48.530;9.200;2023-02-28T14:16:26;6.90;20.60
418;DHT22;49;48.530;9.200;2023-02-28T14:18:58;7.30;19.60
418;DHT22;49;48.530;9.200;2023-02-28T14:21:27;7.30;19.00
418;DHT22;49;48.530;9.200;2023-02-28T14:24:16;7.10;19.40
418;DHT22;49;48.530;9.200;2023-02-28T14:27:16;7.20;19.70
418;DHT22;49;48.530;9.200;2023-02-28T14:30:20;7.20;18.90
418;DHT22;49;48.530;9.200;2023-02-28T14:33:03;7.20;19.30
418;DHT22;49;48.530;9.200;2023-02-28T14:35:49;7.20;18.30
418;DHT22;49;48.530;9.200;2023-02-28T14:38:21;7.20;18.20
418;DHT22;49;48.530;9.200;2023-02-28T14:40:55;7.30;18.70
418;DHT22;49;48.530;9.200;2023-02-28T14:43:29;7.40;17.80
418;DHT22;49;48.530;9.200;2023-02-28T14:45:59;7.00;18.70
418;DHT22;49;48.530;9.200;2023-02-28T14:48:28;7.10;18.60
418;DHT22;49;48.530;9.200;2023-02-28T14:50:57;7.20;18.90
418;DHT22;49;48.530;9.200;2023-02-28T14:53:28;6.70;19.50
418;DHT22;49;48.530;9.200;2023-02-28T14:55:57;6.60;19.50
418;DHT22;49;48.530;9.200;2023-02-28T14:58:31;7.20;19.00
418;DHT22;49;48.530;9.200;2023-02-28T15:01:00;7.20;18.30
418;DHT22;49;48.530;9.200;2023-02-28T15:03:33;7.10;19.00
418;DHT22;49;48.530;9.200;2023-02-28T15:06:02;6.90;19.20
418;DHT22;49;48.530;9.200;2023-02-28T15:08:32;7.10;19.10
418;DHT22;49;48.530;9.200;2023-02-28T15:11:02;7.40;18.30
418;DHT22;49;48.530;9.200;2023-02-28T15:13:37;7.10;18.20
418;DHT22;49;48.530;9.200;2023-02-28T15:16:10;7.10;18.80
418;DHT22;49;48.530;9.200;2023-02-28T15:18:49;7.40;17.60
418;DHT22;49;48.530;9.200;2023-02-28T15:21:20;7.30;17.80
418;DHT22;49;48.530;9.200;2023-02-28T15:23:52;7.70;17.50
418;DHT22;49;48.530;9.200;2023-02-28T15:26:22;7.60;16.60
418;DHT22;49;48.530;9.200;2023-02-28T15:28:56;7.40;18.20
418;DHT22;49;48.530;9.200;2023-02-28T15:31:27;7.50;17.80
418;DHT22;49;48.530;9.200;2023-02-28T15:33:57;6.90;18.00
418;DHT22;49;48.530;9.200;2023-02-28T15:36:30;7.10;19.00
418;DHT22;49;48.530;9.200;2023-02-28T15:38:59;7.80;17.30
418;DHT22;49;48.530;9.200;2023-02-28T15:41:28;8.10;16.50
418;DHT22;49;48.530;9.200;2023-02-28T15:44:25;8.10;16.50
418;DHT22;49;48.530;9.200;2023-02-28T15:46:58;8.10;16.20
418;DHT22;49;48.530;9.200;2023-02-28T15:49:37;7.90;16.40
418;DHT22;49;48.530;9.200;2023-02-28T15:52:13;7.30;17.50
418;DHT22;49;48.530;9.200;2023-02-28T15:54:41;6.90;18.00
418;DHT22;49;48.530;9.200;2023-02-28T15:57:17;7.10;18.10
418;DHT22;49;48.530;9.200;2023-02-28T15:59:50;7.60;17.80
418;DHT22;49;48.530;9.200;2023-02-28T16:02:20;7.40;17.80
418;DHT22;49;48.530;9.200;2023-02-28T16:05:20;7.50;17.40
418;DHT22;49;48.530;9.200;2023-02-28T16:07:54;8.00;16.50
418;DHT22;49;48.530;9.200;2023-02-28T16:10:24;7.60;17.70
418;DHT22;49;48.530;9.200;2023-02-28T16:12:57;6.90;18.50
418;DHT22;49;48.530;9.200;2023-02-28T16:15:28;6.50;20.30
418;DHT22;49;48.530;9.200;2023-02-28T16:18:00;6.10;21.10
418;DHT22;49;48.530;9.200;2023-02-28T16:20:34;6.60;20.40
418;DHT22;49;48.530;9.200;2023-02-28T16:23:01;6.40;20.80
418;DHT22;49;48.530;9.200;2023-02-28T16:25:35;6.10;21.20
418;DHT22;49;48.530;9.200;2023-02-28T16:28:03;6.30;21.20
418;DHT22;49;48.530;9.200;2023-02-28T16:30:33;6.30;21.70
418;DHT22;49;48.530;9.200;2023-02-28T16:33:01;6.50;21.40
418;DHT22;49;48.530;9.200;2023-02-28T16:35:30;6.50;20.90
418;DHT22;49;48.530;9.200;2023-02-28T16:38:02;5.90;21.60
418;DHT22;49;48.530;9.200;2023-02-28T16:40:36;5.90;21.90
418;DHT22;49;48.530;9.200;2023-02-28T16:43:07;5.60;22.60
418;DHT22;49;48.530;9.200;2023-02-28T16:45:43;5.70;23.00
418;DHT22;49;48.530;9.200;2023-02-28T16:48:13;5.90;22.80
418;DHT22;49;48.530;9.200;2023-02-28T16:50:41;5.80;23.10
418;DHT22;49;48.530;9.200;2023-02-28T16:53:14;5.40;23.70
418;DHT22;49;48.530;9.200;2023-02-28T16:55:46;5.30;24.40
418;DHT22;49;48.530;9.200;2023-02-28T16:58:15;5.50;23.80
418;DHT22;49;48.530;9.200;2023-02-28T17:00:43;5.60;23.70
418;DHT22;49;48.530;9.200;2023-02-28T17:03:22;5.30;23.90
418;DHT22;49;48.530;9.200;2023-02-28T17:05:49;5.10;24.60
418;DHT22;49;48.530;9.200;2023-02-28T17:08:18;5.30;24.60
418;DHT22;49;48.530;9.200;2023-02-28T17:10:49;5.30;24.30
418;DHT22;49;48.530;9.200;2023-02-28T17:13:22;5.20;25.00
418;DHT22;49;48.530;9.200;2023-02-28T17:15:49;5.30;24.40
418;DHT22;49;48.530;9.200;2023-02-28T17:18:31;5.30;23.80
418;DHT22;49;48.530;9.200;2023-02-28T17:21:12;5.20;24.30
418;DHT22;49;48.530;9.200;2023-02-28T17:23:41;5.30;24.90
418;DHT22;49;48.530;9.200;2023-02-28T17:26:13;5.70;23.60
418;DHT22;49;48.530;9.200;2023-02-28T17:28:48;5.60;23.40
418;DHT22;49;48.530;9.200;2023-02-28T17:31:22;6.10;22.40
418;DHT22;49;48.530;9.200;2023-02-28T17:34:03;6.30;21.20
418;DHT22;49;48.530;9.200;2023-02-28T17:36:46;6.40;21.80
418;DHT22;49;48.530;9.200;2023-02-28T17:39:29;6.40;21.30
418;DHT22;49;48.530;9.200;2023-02-28T17:42:18;6.40;21.10
418;DHT22;49;48.530;9.200;2023-02-28T17:44:45;6.20;21.20
418;DHT22;49;48.530;9.200;2023-02-28T17:47:12;5.70;22.10
418;DHT22;49;48.530;9.200;2023-02-28T17:49:43;5.70;22.50
418;DHT22;49;48.530;9.200;2023-02-28T17:52:11;5.30;23.40
418;DHT22;49;48.530;9.200;2023-02-28T17:54:42;5.10;24.00
418;DHT22;49;48.530;9.200;2023-02-28T17:57:15;5.00;24.60
418;DHT22;49;48.530;9.200;2023-02-28T17:59:42;4.70;25.70
418;DHT22;49;48.530;9.200;2023-02-28T18:02:13;4.60;25.90
418;DHT22;49;48.530;9.200;2023-02-28T18:04:40;4.60;26.30
418;DHT22;49;48.530;9.200;2023-02-28T18:07:11;4.50;26.70
418;DHT22;49;48.530;9.200;2023-02-28T18:09:42;4.20;27.70
418;DHT22;49;48.530;9.200;2023-02-28T18:12:09;4.10;29.30
418;DHT22;49;48.530;9.200;2023-02-28T18:14:41;4.10;28.80
418;DHT22;49;48.530;9.200;2023-02-28T18:17:14;4.20;28.50